createdAt,value
2022-12-07T00:01:19.497Z,66.85
2022-12-07T00:03:47.787Z,65.31
2022-12-07T00:06:16.185Z,66.48
2022-12-07T00:08:43.645Z,66.58
2022-12-07T00:11:19.160Z,67.21
2022-12-07T00:13:47.297Z,67.23
2022-12-07T00:16:16.739Z,66.96
2022-12-07T00:18:44.225Z,67.24
2022-12-07T00:21:12.469Z,67.42
2022-12-07T00:23:40.414Z,67.33
2022-12-07T00:26:12.415Z,67.31
2022-12-07T00:28:40.206Z,67.20
2022-12-07T00:31:11.879Z,67.61
2022-12-07T00:33:39.389Z,67.26
2022-12-07T00:36:08.949Z,67.24
2022-12-07T00:38:36.830Z,67.37
2022-12-07T00:41:05.795Z,67.61
2022-12-07T00:43:33.599Z,68.22
2022-12-07T00:46:01.006Z,67.95
2022-12-07T00:48:28.375Z,67.79
2022-12-07T00:50:55.987Z,68.18
2022-12-07T00:53:23.414Z,68.96
2022-12-07T00:55:50.813Z,67.20
2022-12-07T00:58:18.421Z,67.43
2022-12-07T01:00:45.841Z,67.13
2022-12-07T01:03:14.195Z,66.88
2022-12-07T01:05:41.817Z,67.30
2022-12-07T01:08:09.461Z,67.31
2022-12-07T01:10:36.851Z,67.72
2022-12-07T01:13:04.425Z,67.43
2022-12-07T01:15:31.741Z,67.01
2022-12-07T01:17:59.118Z,66.90
2022-12-07T01:20:26.683Z,66.83
2022-12-07T01:22:54.030Z,67.05
2022-12-07T01:25:21.454Z,66.83
2022-12-07T01:27:49.051Z,66.74
2022-12-07T01:30:16.448Z,66.60
2022-12-07T01:32:43.827Z,67.88
2022-12-07T01:35:11.413Z,67.61
2022-12-07T01:37:39.162Z,67.72
2022-12-07T01:40:08.024Z,66.87
2022-12-07T01:42:35.829Z,65.44
2022-12-07T01:45:18.467Z,67.24
2022-12-07T01:47:56.298Z,67.70
2022-12-07T01:50:25.497Z,66.80
2022-12-07T01:52:53.089Z,67.71
2022-12-07T01:55:21.308Z,67.30
2022-12-07T01:57:50.009Z,67.28
2022-12-07T02:00:18.043Z,67.70
2022-12-07T02:02:47.799Z,67.38
2022-12-07T02:05:15.317Z,66.64
2022-12-07T02:07:42.700Z,66.84
2022-12-07T02:10:36.762Z,67.00
2022-12-07T02:13:07.564Z,66.68
2022-12-07T02:15:44.317Z,66.42
2022-12-07T02:18:21.000Z,65.93
2022-12-07T02:21:04.210Z,64.62
2022-12-07T02:23:31.566Z,65.17
2022-12-07T02:26:24.991Z,65.64
2022-12-07T02:29:14.568Z,65.82
2022-12-07T02:31:46.366Z,66.02
2022-12-07T02:34:23.513Z,65.55
2022-12-07T02:36:54.427Z,65.49
2022-12-07T02:39:44.817Z,65.14
2022-12-07T02:42:17.789Z,64.99
2022-12-07T02:44:45.115Z,64.44
2022-12-07T02:47:14.664Z,65.01
2022-12-07T02:49:42.024Z,64.18
2022-12-07T02:52:09.372Z,64.86
2022-12-07T02:54:36.991Z,64.52
2022-12-07T02:57:27.871Z,64.97
2022-12-07T03:00:01.387Z,65.35
2022-12-07T03:02:47.829Z,64.84
2022-12-07T03:05:24.252Z,64.84
2022-12-07T03:08:14.513Z,64.48
2022-12-07T03:11:03.794Z,64.87
2022-12-07T03:13:47.005Z,64.53
2022-12-07T03:16:19.591Z,64.78
2022-12-07T03:18:56.350Z,64.44
2022-12-07T03:21:38.632Z,63.96
2022-12-07T03:24:10.052Z,64.11
2022-12-07T03:26:39.719Z,64.36
2022-12-07T03:29:18.233Z,64.29
2022-12-07T03:31:48.573Z,64.12
2022-12-07T03:34:23.947Z,64.08
2022-12-07T03:36:54.734Z,63.97
2022-12-07T03:39:40.186Z,63.87
2022-12-07T03:42:08.283Z,64.06
2022-12-07T03:44:35.648Z,63.70
2022-12-07T03:47:06.053Z,63.92
2022-12-07T03:49:42.554Z,62.86
2022-12-07T03:52:23.899Z,63.71
2022-12-07T03:55:01.236Z,63.95
2022-12-07T03:57:29.024Z,64.27
2022-12-07T03:59:56.742Z,66.51
2022-12-07T04:02:25.221Z,68.28
2022-12-07T04:04:53.011Z,66.66
2022-12-07T04:07:20.349Z,65.77
2022-12-07T04:09:47.685Z,65.45
2022-12-07T04:12:15.287Z,64.79
2022-12-07T04:14:42.627Z,66.09
2022-12-07T04:17:09.950Z,65.42
2022-12-07T04:19:37.543Z,65.03
2022-12-07T04:22:05.350Z,65.12
2022-12-07T04:24:32.966Z,64.76
2022-12-07T04:27:00.563Z,64.10
2022-12-07T04:29:27.940Z,65.16
2022-12-07T04:31:55.302Z,64.37
2022-12-07T04:34:22.983Z,66.55
2022-12-07T04:36:50.371Z,67.76
2022-12-07T04:39:26.477Z,66.90
2022-12-07T04:41:54.176Z,66.31
2022-12-07T04:44:40.147Z,66.14
2022-12-07T04:47:07.891Z,64.96
2022-12-07T04:49:35.377Z,66.36
2022-12-07T04:52:21.273Z,68.43
2022-12-07T04:55:07.901Z,66.73
2022-12-07T04:57:35.329Z,67.91
2022-12-07T05:00:03.296Z,67.21
2022-12-07T05:02:31.149Z,68.76
2022-12-07T05:04:58.591Z,70.22
2022-12-07T05:07:26.186Z,68.78
2022-12-07T05:09:53.563Z,68.25
2022-12-07T05:12:20.885Z,67.98
2022-12-07T05:14:48.505Z,67.98
2022-12-07T05:17:15.870Z,67.14
2022-12-07T05:19:43.215Z,67.85
2022-12-07T05:22:11.533Z,68.12
2022-12-07T05:24:38.860Z,68.18
2022-12-07T05:27:06.198Z,67.75
2022-12-07T05:29:33.795Z,67.94
2022-12-07T05:32:01.187Z,68.04
2022-12-07T05:34:28.546Z,68.68
2022-12-07T05:36:56.196Z,68.27
2022-12-07T05:39:23.567Z,67.80
2022-12-07T05:42:09.824Z,67.51
2022-12-07T05:44:37.387Z,67.61
2022-12-07T05:47:04.711Z,67.47
2022-12-07T05:49:32.172Z,67.16
2022-12-07T05:52:00.032Z,66.84
2022-12-07T05:54:27.368Z,67.03
2022-12-07T05:56:54.712Z,66.96
2022-12-07T05:59:25.289Z,66.60
2022-12-07T06:02:02.780Z,66.11
2022-12-07T06:04:32.144Z,66.45
2022-12-07T06:06:59.531Z,66.33
2022-12-07T06:09:27.371Z,66.35
2022-12-07T06:12:14.567Z,66.37
2022-12-07T06:15:00.294Z,66.36
2022-12-07T06:17:28.005Z,66.33
2022-12-07T06:19:55.352Z,66.34
2022-12-07T06:22:22.771Z,66.39
2022-12-07T06:24:50.439Z,66.28
2022-12-07T06:27:18.389Z,65.84
2022-12-07T06:29:45.742Z,66.73
2022-12-07T06:32:13.491Z,66.83
2022-12-07T06:34:58.995Z,67.21
2022-12-07T06:37:26.627Z,74.88
2022-12-07T06:39:53.979Z,76.68
2022-12-07T06:42:21.358Z,77.31
2022-12-07T06:44:49.016Z,79.20
2022-12-07T06:50:05.186Z,70.15
2022-12-07T06:52:32.657Z,69.49
2022-12-07T06:55:00.380Z,68.85
2022-12-07T06:57:28.067Z,68.24
2022-12-07T06:59:55.532Z,67.98
2022-12-07T07:02:22.948Z,68.20
2022-12-07T07:04:50.620Z,68.15
2022-12-07T07:07:17.942Z,67.93
2022-12-07T07:09:45.436Z,67.67
2022-12-07T07:12:13.050Z,67.32
2022-12-07T07:14:40.477Z,67.33
2022-12-07T07:17:07.895Z,67.49
2022-12-07T07:19:35.540Z,67.25
2022-12-07T07:22:03.022Z,67.10
2022-12-07T07:24:30.453Z,67.12
2022-12-07T07:26:58.113Z,67.05
2022-12-07T07:29:25.556Z,67.04
2022-12-07T07:31:52.997Z,67.20
2022-12-07T07:34:20.634Z,66.74
2022-12-07T07:36:48.175Z,66.06
2022-12-07T07:39:15.548Z,66.78
2022-12-07T07:41:43.189Z,67.20
2022-12-07T07:44:12.947Z,67.54
2022-12-07T07:46:40.569Z,67.42
2022-12-07T07:49:08.192Z,67.51
2022-12-07T07:51:35.519Z,67.27
2022-12-07T07:54:03.774Z,67.06
2022-12-07T07:56:31.368Z,67.46
2022-12-07T07:58:58.760Z,67.11
2022-12-07T08:01:26.570Z,67.18
2022-12-07T08:03:55.567Z,66.84
2022-12-07T08:06:25.507Z,66.58
2022-12-07T08:08:55.338Z,66.42
2022-12-07T08:11:22.719Z,66.99
2022-12-07T08:13:50.150Z,67.20
2022-12-07T08:16:17.916Z,66.52
2022-12-07T08:18:45.292Z,65.97
2022-12-07T08:21:14.063Z,64.27
2022-12-07T08:23:41.729Z,63.75
2022-12-07T08:26:11.465Z,64.84
2022-12-07T08:28:39.101Z,63.74
2022-12-07T08:31:09.791Z,64.23
2022-12-07T08:33:37.198Z,65.23
2022-12-07T08:36:09.419Z,64.96
2022-12-07T08:38:37.593Z,66.05
2022-12-07T08:41:05.152Z,65.44
2022-12-07T08:43:32.759Z,66.85
2022-12-07T08:46:00.289Z,65.62
2022-12-07T08:48:27.752Z,64.69
2022-12-07T08:50:55.232Z,64.47
2022-12-07T08:53:22.898Z,63.35
2022-12-07T08:55:50.320Z,63.95
2022-12-07T08:58:17.703Z,63.53
2022-12-07T09:00:45.333Z,64.20
2022-12-07T09:03:12.805Z,65.47
2022-12-07T09:05:40.218Z,64.11
2022-12-07T09:08:07.936Z,63.89
2022-12-07T09:10:35.517Z,64.86
2022-12-07T09:13:02.991Z,65.54
2022-12-07T09:15:30.835Z,64.79
2022-12-07T09:17:58.237Z,66.97
2022-12-07T09:20:28.083Z,65.71
2022-12-07T09:22:56.125Z,65.45
2022-12-07T09:25:23.506Z,65.92
2022-12-07T09:27:56.909Z,64.91
2022-12-07T09:30:24.624Z,64.38
2022-12-07T09:32:54.066Z,65.22
2022-12-07T09:35:21.628Z,65.13
2022-12-07T09:37:49.250Z,64.12
2022-12-07T09:40:17.548Z,64.79
2022-12-07T09:42:52.612Z,63.68
2022-12-07T09:45:32.080Z,63.32
2022-12-07T09:47:59.496Z,64.91
2022-12-07T09:50:28.660Z,65.13
2022-12-07T09:53:02.753Z,62.89
2022-12-07T09:55:30.586Z,62.55
2022-12-07T09:57:58.540Z,63.62
2022-12-07T10:00:26.401Z,65.19
2022-12-07T10:03:00.856Z,63.38
2022-12-07T10:05:33.838Z,62.15
2022-12-07T10:08:01.679Z,61.15
2022-12-07T10:10:38.106Z,63.34
2022-12-07T10:13:16.787Z,63.19
2022-12-07T10:15:48.505Z,65.55
2022-12-07T10:18:27.031Z,63.09
2022-12-07T10:21:06.672Z,64.91
2022-12-07T10:23:34.720Z,62.76
2022-12-07T10:26:20.730Z,61.24
2022-12-07T10:28:49.656Z,62.21
2022-12-07T10:31:18.709Z,65.52
2022-12-07T10:33:57.415Z,64.24
2022-12-07T10:36:45.434Z,62.83
2022-12-07T10:39:19.089Z,64.26
2022-12-07T10:41:59.653Z,62.55
2022-12-07T10:44:29.132Z,61.29
2022-12-07T10:47:18.611Z,60.77
2022-12-07T10:49:45.852Z,62.40
2022-12-07T10:52:28.622Z,61.89
2022-12-07T10:55:37.283Z,63.90
2022-12-07T10:58:34.057Z,60.47
2022-12-07T11:01:27.295Z,60.63
2022-12-07T11:04:00.620Z,61.89
2022-12-07T11:06:57.443Z,60.44
2022-12-07T11:10:10.812Z,61.24
2022-12-07T11:12:38.425Z,61.27
2022-12-07T11:15:05.994Z,59.23
2022-12-07T11:17:37.679Z,60.96
2022-12-07T11:20:29.636Z,59.84
2022-12-07T11:23:14.676Z,59.38
2022-12-07T11:26:31.079Z,58.29
2022-12-07T11:29:35.387Z,60.65
2022-12-07T11:32:35.755Z,60.38
2022-12-07T11:35:27.333Z,58.77
2022-12-07T11:38:00.831Z,61.02
2022-12-07T11:40:31.779Z,58.99
2022-12-07T11:43:20.925Z,60.94
2022-12-07T11:46:10.710Z,59.45
2022-12-07T11:48:59.412Z,59.77
2022-12-07T11:51:33.200Z,61.28
2022-12-07T11:54:04.358Z,61.06
2022-12-07T11:56:31.991Z,59.24
2022-12-07T11:59:02.894Z,59.21
2022-12-07T12:01:39.784Z,59.52
2022-12-07T12:04:20.446Z,58.84
2022-12-07T12:06:48.019Z,57.92
2022-12-07T12:15:22.005Z,57.81
2022-12-07T12:17:55.293Z,56.96
2022-12-07T12:20:44.424Z,56.81
2022-12-07T12:23:19.209Z,57.95
2022-12-07T12:25:48.758Z,57.28
2022-12-07T12:28:38.448Z,56.55
2022-12-07T12:31:18.512Z,56.32
2022-12-07T12:33:56.416Z,57.04
2022-12-07T12:36:47.845Z,57.66
2022-12-07T12:39:17.178Z,57.19
2022-12-07T12:41:47.581Z,57.33
2022-12-07T12:44:20.859Z,57.70
2022-12-07T12:46:55.555Z,56.34
2022-12-07T12:49:22.802Z,56.53
2022-12-07T12:51:57.466Z,55.58
2022-12-07T12:54:27.006Z,55.52
2022-12-07T12:57:18.582Z,55.37
2022-12-07T12:59:51.990Z,54.86
2022-12-07T13:02:32.301Z,55.09
2022-12-07T13:05:11.095Z,55.19
2022-12-07T13:08:01.869Z,54.48
2022-12-07T13:10:35.282Z,54.46
2022-12-07T13:13:21.464Z,53.66
2022-12-07T13:15:51.939Z,54.70
2022-12-07T13:18:28.651Z,54.43
2022-12-07T13:20:56.152Z,53.28
2022-12-07T13:23:32.161Z,53.96
2022-12-07T13:26:23.821Z,52.65
2022-12-07T13:29:10.332Z,53.50
2022-12-07T13:31:50.417Z,52.89
2022-12-07T13:34:37.437Z,53.69
2022-12-07T13:37:16.952Z,53.37
2022-12-07T13:39:48.262Z,54.02
2022-12-07T13:42:27.741Z,54.06
2022-12-07T13:44:55.782Z,53.94
2022-12-07T13:47:29.222Z,53.52
2022-12-07T13:49:57.211Z,53.17
2022-12-07T13:52:26.379Z,52.94
2022-12-07T13:55:00.821Z,52.46
2022-12-07T13:57:31.432Z,54.45
2022-12-07T13:59:59.288Z,53.14
2022-12-07T14:02:34.061Z,54.49
2022-12-07T14:05:25.157Z,53.70
2022-12-07T14:08:02.966Z,56.25
2022-12-07T14:10:35.568Z,54.73
2022-12-07T14:13:04.385Z,55.83
2022-12-07T14:15:33.730Z,55.68
2022-12-07T14:18:04.636Z,56.41
2022-12-07T14:20:39.733Z,55.55
2022-12-07T14:23:21.600Z,55.39
2022-12-07T14:25:51.762Z,55.68
2022-12-07T14:28:29.181Z,57.35
2022-12-07T14:30:56.845Z,56.29
2022-12-07T14:33:24.408Z,55.60
2022-12-07T14:35:56.015Z,55.72
2022-12-07T14:38:23.708Z,55.74
2022-12-07T14:40:51.675Z,55.89
2022-12-07T14:43:19.060Z,56.21
2022-12-07T14:45:46.887Z,56.69
2022-12-07T14:53:55.403Z,57.41
2022-12-07T14:56:26.016Z,57.48
2022-12-07T14:58:53.400Z,57.25
2022-12-07T15:01:20.736Z,57.22
2022-12-07T15:03:48.446Z,57.17
2022-12-07T15:06:17.852Z,57.91
2022-12-07T15:08:45.575Z,58.22
2022-12-07T15:11:16.998Z,57.66
2022-12-07T15:14:02.967Z,58.45
2022-12-07T15:16:40.652Z,58.75
2022-12-07T15:19:27.748Z,58.55
2022-12-07T15:21:56.598Z,59.27
2022-12-07T15:24:25.141Z,59.45
2022-12-07T15:26:53.187Z,59.78
2022-12-07T15:29:23.183Z,60.29
2022-12-07T15:31:56.509Z,60.70
2022-12-07T15:34:26.353Z,60.95
2022-12-07T15:36:53.711Z,61.16
2022-12-07T15:39:21.085Z,61.09
2022-12-07T15:41:48.717Z,61.50
2022-12-07T15:44:34.621Z,62.34
2022-12-07T15:47:02.256Z,62.51
2022-12-07T15:49:29.626Z,62.78
2022-12-07T15:51:56.980Z,63.29
2022-12-07T15:54:26.404Z,63.43
2022-12-07T15:56:54.170Z,63.31
2022-12-07T15:59:21.607Z,63.81
2022-12-07T16:01:49.313Z,63.47
2022-12-07T16:04:16.955Z,63.87
2022-12-07T16:06:44.438Z,63.85
2022-12-07T16:09:11.926Z,64.11
2022-12-07T16:11:39.627Z,64.08
2022-12-07T16:14:07.126Z,64.56
2022-12-07T16:16:34.591Z,64.19
2022-12-07T16:19:02.327Z,63.55
2022-12-07T16:21:29.671Z,63.87
2022-12-07T16:23:59.180Z,63.62
2022-12-07T16:26:26.869Z,64.02
2022-12-07T16:28:54.625Z,64.20
2022-12-07T16:31:23.420Z,64.55
2022-12-07T16:33:52.023Z,64.43
2022-12-07T16:36:34.300Z,64.86
2022-12-07T16:39:07.218Z,64.89
2022-12-07T16:41:34.569Z,64.88
2022-12-07T16:44:06.016Z,64.51
2022-12-07T16:46:34.412Z,64.58
2022-12-07T16:49:02.243Z,64.52
2022-12-07T16:51:29.680Z,64.52
2022-12-07T16:53:57.366Z,64.92
2022-12-07T16:56:25.684Z,64.84
2022-12-07T16:58:53.013Z,64.97
2022-12-07T17:01:22.832Z,64.54
2022-12-07T17:03:50.318Z,64.95
2022-12-07T17:06:19.331Z,64.54
2022-12-07T17:08:47.457Z,64.44
2022-12-07T17:11:25.694Z,64.60
2022-12-07T17:14:12.350Z,64.27
2022-12-07T17:16:39.657Z,63.85
2022-12-07T17:19:08.114Z,63.84
2022-12-07T17:21:35.702Z,64.11
2022-12-07T17:24:04.264Z,63.59
2022-12-07T17:26:35.362Z,64.45
2022-12-07T17:29:04.523Z,64.78
2022-12-07T17:31:33.389Z,65.36
2022-12-07T17:34:01.107Z,65.02
2022-12-07T17:36:30.256Z,65.42
2022-12-07T17:38:58.125Z,65.42
2022-12-07T17:41:45.785Z,65.14
2022-12-07T17:44:17.715Z,65.31
2022-12-07T17:46:46.039Z,65.78
2022-12-07T17:49:13.699Z,65.77
2022-12-07T17:51:59.855Z,65.70
2022-12-07T17:54:27.335Z,65.80
2022-12-07T17:56:54.656Z,65.87
2022-12-07T17:59:22.046Z,65.44
2022-12-07T18:01:49.805Z,65.89
2022-12-07T18:04:17.556Z,66.29
2022-12-07T18:06:50.423Z,66.21
2022-12-07T18:09:20.994Z,66.33
2022-12-07T18:11:48.649Z,66.65
2022-12-07T18:14:16.795Z,66.52
2022-12-07T18:16:44.616Z,65.93
2022-12-07T18:19:14.273Z,65.99
2022-12-07T18:21:41.683Z,66.36
2022-12-07T18:24:13.308Z,66.12
2022-12-07T18:26:40.832Z,66.62
2022-12-07T18:29:08.322Z,66.07
2022-12-07T18:31:36.270Z,66.08
2022-12-07T18:34:04.921Z,65.72
2022-12-07T18:36:32.249Z,66.15
2022-12-07T18:38:59.879Z,66.35
2022-12-07T18:41:27.271Z,67.22
2022-12-07T18:43:54.605Z,66.08
2022-12-07T18:46:22.208Z,66.96
2022-12-07T18:48:50.535Z,67.07
2022-12-07T18:51:19.114Z,66.52
2022-12-07T18:53:46.763Z,66.75
2022-12-07T18:56:18.707Z,66.58
2022-12-07T18:59:12.322Z,67.28
2022-12-07T19:01:40.088Z,67.37
2022-12-07T19:04:07.603Z,67.00
2022-12-07T19:06:35.209Z,67.42
2022-12-07T19:09:04.774Z,66.91
2022-12-07T19:11:51.445Z,66.96
2022-12-07T19:14:22.811Z,66.16
2022-12-07T19:16:51.244Z,66.61
2022-12-07T19:19:19.720Z,66.89
2022-12-07T19:21:47.143Z,67.07
2022-12-07T19:24:19.722Z,67.01
2022-12-07T19:26:49.080Z,66.39
2022-12-07T19:29:16.434Z,66.57
2022-12-07T19:31:43.888Z,66.86
2022-12-07T19:34:12.117Z,66.42
2022-12-07T19:36:39.634Z,66.53
2022-12-07T19:39:11.309Z,66.73
2022-12-07T19:41:46.139Z,67.01
2022-12-07T19:44:15.256Z,67.14
2022-12-07T19:46:43.799Z,67.31
2022-12-07T19:49:11.271Z,67.07
2022-12-07T19:51:38.695Z,67.21
2022-12-07T19:54:06.342Z,67.07
2022-12-07T19:56:33.832Z,67.15
2022-12-07T19:59:01.880Z,67.40
2022-12-07T20:01:30.087Z,67.30
2022-12-07T20:03:57.786Z,66.89
2022-12-07T20:06:25.398Z,67.69
2022-12-07T20:08:52.772Z,67.66
2022-12-07T20:11:39.018Z,67.18
2022-12-07T20:14:10.239Z,67.52
2022-12-07T20:16:40.148Z,67.64
2022-12-07T20:19:08.941Z,67.45
2022-12-07T20:21:36.977Z,67.61
2022-12-07T20:24:05.700Z,67.69
2022-12-07T20:26:35.954Z,67.77
2022-12-07T20:29:17.547Z,67.95
2022-12-07T20:31:46.585Z,67.81
2022-12-07T20:34:14.086Z,67.77
2022-12-07T20:36:41.613Z,67.83
2022-12-07T20:39:09.193Z,67.33
2022-12-07T20:41:55.438Z,67.60
2022-12-07T20:44:22.891Z,67.55
2022-12-07T20:46:50.250Z,67.62
2022-12-07T20:49:18.574Z,67.72
2022-12-07T20:51:46.362Z,67.70
2022-12-07T20:54:13.811Z,67.87
2022-12-07T20:56:41.281Z,67.95
2022-12-07T20:59:12.583Z,68.06
2022-12-07T21:01:40.120Z,67.65
2022-12-07T21:04:07.653Z,67.34
2022-12-07T21:06:35.307Z,67.00
2022-12-07T21:09:02.697Z,67.31
2022-12-07T21:11:32.553Z,66.91
2022-12-07T21:14:00.119Z,66.91
2022-12-07T21:16:29.269Z,67.60
2022-12-07T21:19:00.081Z,68.09
2022-12-07T21:21:27.691Z,66.94
2022-12-07T21:24:01.527Z,66.74
2022-12-07T21:26:30.260Z,67.00
2022-12-07T21:28:57.681Z,67.15
2022-12-07T21:31:26.336Z,66.93
2022-12-07T21:33:54.017Z,66.34
2022-12-07T21:36:22.829Z,66.42
2022-12-07T21:38:50.244Z,66.28
2022-12-07T21:41:18.791Z,66.49
2022-12-07T21:43:46.563Z,65.90
2022-12-07T21:46:14.145Z,66.09
2022-12-07T21:48:41.807Z,65.53
2022-12-07T21:51:13.014Z,66.10
2022-12-07T21:53:41.419Z,66.15
2022-12-07T21:56:15.509Z,65.86
2022-12-07T21:58:43.042Z,66.55
2022-12-07T22:01:21.888Z,65.91
2022-12-07T22:03:49.705Z,64.86
2022-12-07T22:06:24.339Z,65.93
2022-12-07T22:08:52.391Z,65.76
2022-12-07T22:11:19.751Z,66.42
2022-12-07T22:14:10.197Z,66.38
2022-12-07T22:16:39.143Z,66.88
2022-12-07T22:19:07.399Z,66.57
2022-12-07T22:21:34.786Z,66.11
2022-12-07T22:24:03.266Z,67.18
2022-12-07T22:26:30.655Z,67.17
2022-12-07T22:28:58.035Z,67.21
2022-12-07T22:31:25.661Z,67.48
2022-12-07T22:33:53.140Z,68.01
2022-12-07T22:36:20.517Z,67.64
2022-12-07T22:38:48.093Z,66.67
2022-12-07T22:41:28.421Z,66.78
2022-12-07T22:43:56.194Z,65.45
2022-12-07T22:46:23.828Z,66.89
2022-12-07T22:48:51.474Z,67.20
2022-12-07T22:51:33.028Z,67.70
2022-12-07T22:54:00.915Z,67.56
2022-12-07T22:56:29.328Z,66.86
2022-12-07T22:58:56.775Z,67.34
2022-12-07T23:01:24.177Z,67.58
2022-12-07T23:03:52.040Z,67.67
2022-12-07T23:06:24.213Z,67.60
2022-12-07T23:08:51.829Z,66.07
2022-12-07T23:11:40.680Z,66.99
2022-12-07T23:14:13.200Z,67.54
2022-12-07T23:16:40.901Z,67.06
2022-12-07T23:19:08.674Z,67.66
2022-12-07T23:21:36.062Z,67.36
2022-12-07T23:24:03.481Z,66.64
2022-12-07T23:26:31.068Z,67.32
2022-12-07T23:28:58.544Z,67.10
2022-12-07T23:31:26.028Z,67.08
2022-12-07T23:33:53.678Z,66.79
2022-12-07T23:36:25.827Z,66.92
2022-12-07T23:38:53.972Z,66.60
2022-12-07T23:41:23.781Z,66.70
2022-12-07T23:43:51.219Z,66.46
2022-12-07T23:46:23.675Z,64.02
2022-12-07T23:48:52.158Z,65.93
2022-12-07T23:51:19.584Z,64.74
2022-12-07T23:53:48.156Z,65.63
2022-12-07T23:56:20.560Z,65.94
2022-12-07T23:58:48.404Z,66.24
